createdAt,value
2023-05-20T00:02:03.637Z,43.70
2023-05-20T00:04:30.575Z,43.37
2023-05-20T00:06:57.493Z,43.55
2023-05-20T00:09:24.211Z,43.38
2023-05-20T00:11:50.999Z,43.61
2023-05-20T00:14:17.647Z,43.82
2023-05-20T00:16:44.407Z,44.00
2023-05-20T00:19:11.285Z,44.14
2023-05-20T00:21:38.081Z,44.17
2023-05-20T00:24:04.910Z,43.89
2023-05-20T00:26:31.911Z,44.42
2023-05-20T00:28:58.799Z,44.34
2023-05-20T00:31:25.685Z,44.52
2023-05-20T00:33:52.396Z,44.30
2023-05-20T00:36:19.296Z,44.52
2023-05-20T00:38:46.060Z,44.35
2023-05-20T00:41:12.711Z,44.52
2023-05-20T00:43:39.410Z,44.12
2023-05-20T00:46:06.151Z,44.35
2023-05-20T00:48:44.835Z,44.37
2023-05-20T00:51:13.048Z,45.11
2023-05-20T00:53:41.445Z,45.14
2023-05-20T00:56:08.935Z,45.59
2023-05-20T00:58:37.940Z,45.43
2023-05-20T01:01:05.527Z,45.60
2023-05-20T01:03:33.383Z,45.25
2023-05-20T01:06:01.090Z,45.47
2023-05-20T01:08:28.693Z,45.51
2023-05-20T01:11:09.226Z,45.39
2023-05-20T01:13:53.202Z,45.69
2023-05-20T01:16:23.301Z,45.60
2023-05-20T01:18:55.170Z,45.91
2023-05-20T01:21:22.170Z,46.04
2023-05-20T01:23:49.281Z,46.26
2023-05-20T01:26:17.120Z,45.88
2023-05-20T01:28:45.668Z,45.81
2023-05-20T01:31:21.431Z,46.49
2023-05-20T01:33:52.250Z,46.13
2023-05-20T01:36:21.486Z,46.36
2023-05-20T01:38:50.595Z,46.56
2023-05-20T01:41:18.350Z,46.86
2023-05-20T01:43:45.457Z,46.33
2023-05-20T01:46:12.503Z,46.56
2023-05-20T01:48:39.256Z,46.67
2023-05-20T01:51:06.070Z,46.66
2023-05-20T01:53:32.920Z,46.58
2023-05-20T01:55:59.688Z,47.00
2023-05-20T01:58:26.789Z,46.74
2023-05-20T02:00:53.513Z,47.13
2023-05-20T02:03:20.265Z,46.85
2023-05-20T02:05:47.035Z,46.95
2023-05-20T02:08:13.733Z,46.99
2023-05-20T02:10:40.440Z,47.26
2023-05-20T02:13:07.155Z,47.33
2023-05-20T02:15:34.684Z,47.32
2023-05-20T02:18:02.444Z,47.52
2023-05-20T02:20:29.261Z,47.23
2023-05-20T02:22:56.054Z,47.77
2023-05-20T02:25:22.803Z,47.86
2023-05-20T02:27:49.487Z,47.82
2023-05-20T02:30:17.285Z,47.92
2023-05-20T02:32:44.074Z,47.99
2023-05-20T02:35:11.835Z,47.98
2023-05-20T02:37:39.418Z,48.00
2023-05-20T02:40:07.007Z,48.07
2023-05-20T02:42:33.747Z,48.81
2023-05-20T02:45:00.933Z,48.16
2023-05-20T02:47:27.795Z,48.60
2023-05-20T02:49:54.539Z,48.25
2023-05-20T02:52:21.985Z,48.93
2023-05-20T02:54:48.689Z,48.46
2023-05-20T02:57:16.253Z,48.81
2023-05-20T02:59:42.997Z,49.06
2023-05-20T03:02:09.816Z,48.98
2023-05-20T03:04:38.762Z,49.30
2023-05-20T03:07:09.201Z,49.78
2023-05-20T03:09:36.024Z,49.17
2023-05-20T03:12:02.791Z,49.74
2023-05-20T03:14:30.303Z,50.03
2023-05-20T03:16:57.674Z,49.98
2023-05-20T03:19:24.484Z,50.63
2023-05-20T03:21:51.299Z,50.40
2023-05-20T03:24:18.225Z,50.77
2023-05-20T03:26:47.049Z,50.67
2023-05-20T03:29:13.965Z,50.79
2023-05-20T03:31:40.910Z,51.17
2023-05-20T03:34:08.251Z,52.23
2023-05-20T03:36:35.320Z,52.16
2023-05-20T03:39:04.153Z,51.69
2023-05-20T03:41:32.410Z,51.98
2023-05-20T03:43:59.119Z,53.11
2023-05-20T03:46:26.878Z,52.92
2023-05-20T03:48:53.618Z,52.56
2023-05-20T03:51:20.311Z,52.79
2023-05-20T03:53:50.333Z,52.87
2023-05-20T03:56:17.085Z,52.81
2023-05-20T03:58:44.244Z,53.69
2023-05-20T04:01:13.181Z,54.01
2023-05-20T04:03:42.195Z,53.50
2023-05-20T04:06:09.071Z,54.01
2023-05-20T04:08:36.709Z,54.34
2023-05-20T04:11:03.936Z,53.31
2023-05-20T04:13:30.791Z,53.87
2023-05-20T04:15:57.718Z,54.00
2023-05-20T04:18:24.816Z,54.38
2023-05-20T04:20:56.428Z,54.22
2023-05-20T04:23:23.970Z,54.27
2023-05-20T04:25:50.809Z,54.81
2023-05-20T04:28:17.508Z,53.94
2023-05-20T04:30:45.170Z,54.24
2023-05-20T04:33:12.794Z,54.51
2023-05-20T04:35:41.686Z,54.47
2023-05-20T04:38:09.550Z,54.66
2023-05-20T04:40:36.270Z,54.93
2023-05-20T04:43:04.185Z,54.77
2023-05-20T04:45:31.412Z,55.08
2023-05-20T04:47:58.549Z,54.60
2023-05-20T04:50:25.333Z,54.82
2023-05-20T04:52:52.173Z,54.77
2023-05-20T04:55:19.802Z,53.96
2023-05-20T04:57:46.703Z,53.92
2023-05-20T05:00:13.821Z,53.74
2023-05-20T05:02:41.482Z,53.73
2023-05-20T05:05:08.655Z,53.22
2023-05-20T05:07:35.768Z,53.31
2023-05-20T05:10:02.577Z,53.20
2023-05-20T05:12:33.486Z,53.78
2023-05-20T05:15:00.424Z,53.63
2023-05-20T05:17:28.985Z,53.38
2023-05-20T05:19:57.243Z,53.40
2023-05-20T05:22:24.411Z,53.11
2023-05-20T05:24:52.278Z,53.02
2023-05-20T05:27:19.062Z,53.14
2023-05-20T05:29:45.843Z,53.20
2023-05-20T05:32:12.554Z,53.36
2023-05-20T05:34:39.249Z,53.39
2023-05-20T05:37:06.306Z,53.09
2023-05-20T05:39:34.517Z,52.79
2023-05-20T05:42:01.326Z,53.06
2023-05-20T05:44:28.245Z,53.06
2023-05-20T05:46:55.149Z,52.96
2023-05-20T05:49:22.236Z,52.84
2023-05-20T05:51:50.914Z,52.82
2023-05-20T05:54:19.167Z,52.89
2023-05-20T05:56:45.938Z,52.11
2023-05-20T05:59:13.041Z,51.96
2023-05-20T06:01:40.500Z,51.90
2023-05-20T06:04:07.396Z,50.80
2023-05-20T06:06:35.097Z,50.09
2023-05-20T06:09:01.833Z,49.89
2023-05-20T06:11:29.115Z,48.85
2023-05-20T06:13:55.988Z,48.68
2023-05-20T06:16:22.778Z,48.18
2023-05-20T06:18:51.310Z,48.46
2023-05-20T06:21:18.683Z,48.93
2023-05-20T06:23:45.386Z,48.32
2023-05-20T06:26:13.331Z,48.61
2023-05-20T06:28:40.133Z,48.54
2023-05-20T06:31:07.971Z,48.18
2023-05-20T06:33:36.632Z,47.58
2023-05-20T06:36:08.053Z,48.01
2023-05-20T06:38:34.830Z,47.42
2023-05-20T06:41:02.193Z,47.50
2023-05-20T06:43:29.892Z,48.00
2023-05-20T06:46:10.384Z,47.01
2023-05-20T06:48:59.969Z,45.89
2023-05-20T06:51:28.132Z,46.00
2023-05-20T06:53:55.881Z,45.63
2023-05-20T06:56:22.690Z,46.64
2023-05-20T06:58:49.404Z,45.46
2023-05-20T07:01:18.140Z,45.44
2023-05-20T07:03:46.118Z,45.74
2023-05-20T07:06:12.918Z,45.20
2023-05-20T07:08:39.755Z,45.20
2023-05-20T07:11:06.893Z,44.94
2023-05-20T07:13:33.621Z,45.06
2023-05-20T07:16:00.331Z,45.28
2023-05-20T07:18:28.470Z,46.21
2023-05-20T07:20:59.510Z,46.03
2023-05-20T07:23:35.982Z,47.08
2023-05-20T07:26:02.816Z,47.00
2023-05-20T07:28:29.553Z,47.19
2023-05-20T07:30:58.027Z,47.01
2023-05-20T07:33:29.860Z,46.96
2023-05-20T07:35:56.921Z,47.46
2023-05-20T07:38:23.595Z,47.39
2023-05-20T07:40:56.801Z,46.98
2023-05-20T07:43:24.286Z,47.04
2023-05-20T07:45:51.139Z,46.89
2023-05-20T07:48:17.835Z,46.52
2023-05-20T07:50:44.781Z,47.18
2023-05-20T07:53:12.052Z,47.42
2023-05-20T07:55:39.314Z,47.24
2023-05-20T07:58:06.915Z,46.84
2023-05-20T08:00:35.818Z,46.96
2023-05-20T08:03:08.021Z,47.11
2023-05-20T08:05:54.522Z,46.55
2023-05-20T08:08:21.439Z,45.78
2023-05-20T08:10:53.864Z,44.47
2023-05-20T08:13:23.840Z,44.16
2023-05-20T08:15:53.517Z,44.51
2023-05-20T08:18:20.325Z,43.92
2023-05-20T08:20:47.649Z,42.73
2023-05-20T08:23:14.428Z,41.18
2023-05-20T08:25:41.906Z,38.99
2023-05-20T08:28:09.482Z,37.94
2023-05-20T08:30:38.007Z,38.13
2023-05-20T08:33:04.861Z,38.32
2023-05-20T08:35:32.068Z,38.72
2023-05-20T08:37:58.896Z,40.17
2023-05-20T08:40:27.306Z,41.39
2023-05-20T08:42:54.087Z,43.16
2023-05-20T08:45:27.708Z,41.34
2023-05-20T08:48:00.273Z,41.93
2023-05-20T08:50:27.377Z,41.57
2023-05-20T08:52:54.361Z,43.60
2023-05-20T08:55:43.351Z,44.05
2023-05-20T08:58:10.564Z,45.40
2023-05-20T09:00:37.444Z,45.38
2023-05-20T09:03:05.368Z,45.06
2023-05-20T09:05:32.832Z,42.54
2023-05-20T09:08:10.548Z,40.26
2023-05-20T09:10:39.067Z,37.77
2023-05-20T09:13:07.456Z,37.29
2023-05-20T09:15:35.808Z,35.85
2023-05-20T09:18:04.542Z,36.43
2023-05-20T09:20:34.035Z,35.43
2023-05-20T09:23:02.308Z,34.44
2023-05-20T09:25:32.481Z,34.08
2023-05-20T09:27:59.404Z,33.22
2023-05-20T09:30:26.689Z,32.19
2023-05-20T09:32:58.209Z,30.20
2023-05-20T09:35:26.888Z,29.37
2023-05-20T09:37:57.958Z,30.51
2023-05-20T09:40:29.251Z,30.47
2023-05-20T09:43:08.241Z,30.26
2023-05-20T09:45:35.298Z,29.08
2023-05-20T09:48:03.235Z,27.90
2023-05-20T09:50:31.615Z,28.28
2023-05-20T09:53:03.776Z,28.38
2023-05-20T09:55:30.894Z,28.40
2023-05-20T09:57:59.110Z,27.77
2023-05-20T10:00:26.016Z,28.28
2023-05-20T10:02:53.500Z,28.21
2023-05-20T10:05:24.080Z,28.87
2023-05-20T10:08:32.888Z,29.11
2023-05-20T10:11:12.648Z,29.06
2023-05-20T10:14:19.093Z,30.24
2023-05-20T10:17:02.641Z,29.63
2023-05-20T10:19:34.473Z,28.59
2023-05-20T10:22:02.123Z,28.48
2023-05-20T10:24:36.366Z,30.49
2023-05-20T10:27:07.497Z,30.19
2023-05-20T10:29:54.971Z,28.90
2023-05-20T10:32:29.548Z,29.08
2023-05-20T10:35:05.083Z,29.41
2023-05-20T10:37:34.448Z,29.84
2023-05-20T10:40:09.088Z,31.21
2023-05-20T10:42:35.764Z,33.53
2023-05-20T10:45:03.833Z,33.44
2023-05-20T10:47:31.587Z,31.18
2023-05-20T10:49:58.679Z,29.31
2023-05-20T10:52:25.809Z,31.13
2023-05-20T10:55:00.364Z,32.98
2023-05-20T10:57:28.577Z,33.89
2023-05-20T10:59:56.545Z,36.33
2023-05-20T11:02:27.100Z,35.04
2023-05-20T11:04:56.575Z,33.99
2023-05-20T11:07:27.647Z,34.21
2023-05-20T11:09:58.212Z,33.13
2023-05-20T11:12:26.460Z,32.78
2023-05-20T11:14:53.862Z,31.33
2023-05-20T11:17:20.886Z,29.74
2023-05-20T11:19:48.493Z,28.49
2023-05-20T11:22:15.558Z,29.33
2023-05-20T11:24:42.396Z,28.90
2023-05-20T11:27:09.494Z,28.65
2023-05-20T11:29:36.425Z,29.35
2023-05-20T11:32:03.306Z,30.55
2023-05-20T11:34:36.308Z,31.71
2023-05-20T11:37:07.618Z,33.32
2023-05-20T11:39:34.616Z,34.31
2023-05-20T11:42:01.360Z,36.13
2023-05-20T11:44:28.171Z,36.77
2023-05-20T11:47:00.533Z,37.85
2023-05-20T11:49:27.774Z,37.12
2023-05-20T11:51:54.451Z,36.93
2023-05-20T11:54:22.928Z,37.37
2023-05-20T11:56:50.025Z,38.09
2023-05-20T11:59:16.747Z,39.12
2023-05-20T12:01:43.708Z,38.85
2023-05-20T12:04:11.094Z,40.00
2023-05-20T12:06:38.092Z,40.16
2023-05-20T12:09:07.322Z,40.58
2023-05-20T12:11:35.784Z,38.13
2023-05-20T12:14:06.171Z,39.41
2023-05-20T12:16:33.952Z,38.17
2023-05-20T12:19:01.162Z,38.03
2023-05-20T12:21:31.620Z,38.70
2023-05-20T12:24:01.616Z,38.73
2023-05-20T12:26:29.348Z,38.64
2023-05-20T12:28:56.729Z,38.07
2023-05-20T12:31:23.898Z,38.89
2023-05-20T12:33:50.719Z,38.36
2023-05-20T12:36:17.511Z,38.19
2023-05-20T12:38:44.436Z,37.45
2023-05-20T12:41:11.223Z,37.72
2023-05-20T12:43:38.055Z,38.31
2023-05-20T12:46:05.774Z,38.84
2023-05-20T12:48:32.566Z,38.49
2023-05-20T12:51:00.168Z,38.95
2023-05-20T12:53:26.875Z,38.18
2023-05-20T12:55:53.701Z,38.25
2023-05-20T12:58:20.665Z,38.66
2023-05-20T13:00:47.402Z,38.27
2023-05-20T13:03:14.448Z,38.93
2023-05-20T13:05:41.294Z,37.53
2023-05-20T13:08:10.034Z,37.38
2023-05-20T13:10:37.164Z,37.36
2023-05-20T13:13:04.382Z,38.53
2023-05-20T13:15:33.057Z,38.99
2023-05-20T13:18:01.373Z,38.58
2023-05-20T13:20:29.056Z,38.70
2023-05-20T13:22:55.705Z,38.18
2023-05-20T13:25:22.415Z,37.97
2023-05-20T13:27:49.107Z,38.04
2023-05-20T13:30:16.115Z,38.17
2023-05-20T13:32:42.878Z,38.93
2023-05-20T13:35:09.819Z,39.07
2023-05-20T13:37:36.511Z,39.48
2023-05-20T13:40:03.395Z,40.15
2023-05-20T13:42:30.151Z,39.24
2023-05-20T13:44:57.022Z,39.26
2023-05-20T13:47:23.813Z,39.35
2023-05-20T13:49:50.551Z,38.92
2023-05-20T13:52:17.409Z,38.11
2023-05-20T13:54:46.639Z,39.00
2023-05-20T13:57:13.687Z,38.99
2023-05-20T13:59:40.615Z,39.37
2023-05-20T14:02:08.233Z,40.10
2023-05-20T14:04:39.760Z,39.51
2023-05-20T14:07:09.270Z,39.83
2023-05-20T14:09:36.761Z,39.87
2023-05-20T14:12:04.344Z,40.24
2023-05-20T14:14:31.355Z,40.53
2023-05-20T14:16:58.366Z,40.41
2023-05-20T14:19:27.107Z,40.41
2023-05-20T14:21:54.205Z,40.63
2023-05-20T14:24:22.998Z,40.88
2023-05-20T14:26:50.703Z,40.66
2023-05-20T14:29:17.618Z,40.47
2023-05-20T14:31:44.731Z,40.96
2023-05-20T14:34:11.501Z,41.01
2023-05-20T14:36:38.765Z,40.68
2023-05-20T14:39:05.657Z,40.21
2023-05-20T14:41:32.435Z,39.94
2023-05-20T14:43:59.404Z,40.08
2023-05-20T14:46:26.458Z,39.98
2023-05-20T14:48:53.178Z,39.76
2023-05-20T14:51:20.271Z,40.50
2023-05-20T14:53:46.926Z,41.67
2023-05-20T14:56:13.624Z,41.47
2023-05-20T14:58:40.667Z,41.07
2023-05-20T15:01:07.506Z,41.01
2023-05-20T15:03:34.430Z,42.13
2023-05-20T15:06:01.644Z,41.50
2023-05-20T15:08:28.317Z,41.69
2023-05-20T15:10:55.166Z,41.36
2023-05-20T15:13:21.940Z,41.49
2023-05-20T15:15:48.714Z,40.87
2023-05-20T15:18:15.518Z,41.56
2023-05-20T15:20:42.579Z,41.42
2023-05-20T15:23:09.551Z,40.98
2023-05-20T15:25:36.519Z,41.28
2023-05-20T15:28:03.450Z,40.75
2023-05-20T15:30:30.153Z,40.87
2023-05-20T15:32:57.172Z,41.25
2023-05-20T15:35:24.049Z,40.41
2023-05-20T15:37:50.969Z,40.93
2023-05-20T15:40:17.950Z,41.32
2023-05-20T15:42:44.905Z,42.00
2023-05-20T15:45:11.960Z,42.04
2023-05-20T15:47:40.699Z,41.77
2023-05-20T15:50:08.629Z,42.04
2023-05-20T15:52:35.652Z,41.64
2023-05-20T15:55:02.745Z,41.74
2023-05-20T15:57:30.647Z,42.11
2023-05-20T15:59:57.560Z,41.97
2023-05-20T16:02:24.939Z,42.35
2023-05-20T16:04:52.336Z,41.58
2023-05-20T16:07:19.175Z,42.21
2023-05-20T16:09:46.052Z,42.58
2023-05-20T16:12:12.852Z,42.10
2023-05-20T16:14:39.554Z,42.01
2023-05-20T16:17:06.292Z,42.68
2023-05-20T16:19:33.192Z,42.78
2023-05-20T16:22:00.195Z,42.94
2023-05-20T16:24:26.994Z,43.17
2023-05-20T16:26:59.434Z,42.36
2023-05-20T16:29:26.202Z,42.77
2023-05-20T16:31:53.184Z,43.25
2023-05-20T16:34:20.075Z,43.64
2023-05-20T16:36:46.913Z,43.70
2023-05-20T16:39:14.677Z,43.71
2023-05-20T16:41:42.262Z,44.13
2023-05-20T16:44:09.332Z,44.19
2023-05-20T16:46:36.302Z,44.43
2023-05-20T16:49:03.104Z,44.46
2023-05-20T16:51:29.807Z,44.35
2023-05-20T16:53:56.588Z,43.92
2023-05-20T16:56:23.624Z,43.73
2023-05-20T16:58:52.825Z,43.99
2023-05-20T17:01:21.478Z,43.51
2023-05-20T17:03:48.859Z,43.66
2023-05-20T17:06:15.725Z,44.17
2023-05-20T17:08:45.130Z,43.88
2023-05-20T17:11:12.015Z,44.50
2023-05-20T17:13:41.408Z,44.00
2023-05-20T17:16:09.884Z,44.14
2023-05-20T17:18:37.160Z,44.21
2023-05-20T17:21:03.934Z,44.38
2023-05-20T17:23:30.849Z,44.63
2023-05-20T17:25:57.613Z,44.97
2023-05-20T17:28:24.395Z,45.12
2023-05-20T17:30:51.491Z,45.52
2023-05-20T17:33:18.371Z,45.50
2023-05-20T17:35:45.211Z,44.99
2023-05-20T17:38:11.967Z,44.89
2023-05-20T17:40:38.692Z,44.62
2023-05-20T17:43:05.505Z,44.55
2023-05-20T17:45:32.173Z,45.11
2023-05-20T17:47:58.987Z,44.75
2023-05-20T17:50:25.867Z,44.55
2023-05-20T17:52:52.544Z,44.87
2023-05-20T17:55:21.958Z,45.16
2023-05-20T17:57:48.691Z,45.51
2023-05-20T18:00:17.952Z,45.19
2023-05-20T18:02:47.981Z,45.28
2023-05-20T18:05:16.853Z,45.70
2023-05-20T18:07:43.827Z,45.51
2023-05-20T18:10:11.696Z,45.73
2023-05-20T18:12:38.456Z,46.06
2023-05-20T18:15:06.405Z,45.70
2023-05-20T18:17:33.140Z,45.93
2023-05-20T18:20:00.061Z,45.78
2023-05-20T18:22:27.019Z,45.41
2023-05-20T18:24:53.652Z,45.96
2023-05-20T18:27:20.448Z,46.14
2023-05-20T18:29:47.138Z,46.18
2023-05-20T18:32:14.334Z,46.39
2023-05-20T18:34:41.051Z,46.62
2023-05-20T18:37:07.956Z,46.94
2023-05-20T18:39:34.675Z,46.97
2023-05-20T18:42:01.457Z,47.10
2023-05-20T18:44:28.224Z,47.23
2023-05-20T18:46:54.949Z,47.08
2023-05-20T18:49:21.647Z,47.08
2023-05-20T18:51:48.342Z,47.56
2023-05-20T18:54:14.995Z,47.53
2023-05-20T18:56:41.682Z,47.87
2023-05-20T18:59:08.486Z,47.96
2023-05-20T19:01:36.494Z,47.89
2023-05-20T19:04:03.497Z,48.06
2023-05-20T19:06:31.249Z,48.22
2023-05-20T19:08:58.051Z,47.63
2023-05-20T19:11:24.700Z,48.01
2023-05-20T19:13:51.394Z,48.26
2023-05-20T19:16:18.153Z,48.10
2023-05-20T19:18:44.914Z,48.02
2023-05-20T19:21:11.706Z,48.06
2023-05-20T19:23:38.412Z,48.43
2023-05-20T19:26:05.442Z,48.32
2023-05-20T19:28:32.127Z,48.34
2023-05-20T19:30:58.912Z,48.62
2023-05-20T19:33:25.664Z,48.92
2023-05-20T19:35:52.338Z,49.10
2023-05-20T19:38:19.144Z,48.80
2023-05-20T19:40:46.956Z,49.22
2023-05-20T19:43:13.755Z,48.87
2023-05-20T19:45:40.600Z,49.24
2023-05-20T19:48:07.563Z,48.93
2023-05-20T19:50:34.423Z,48.83
2023-05-20T19:53:03.312Z,49.23
2023-05-20T19:55:30.083Z,49.07
2023-05-20T19:57:57.164Z,49.32
2023-05-20T20:00:24.157Z,49.62
2023-05-20T20:02:51.273Z,49.57
2023-05-20T20:05:18.333Z,50.00
2023-05-20T20:07:45.941Z,50.00
2023-05-20T20:10:12.619Z,50.33
2023-05-20T20:12:39.299Z,50.40
2023-05-20T20:15:06.643Z,50.34
2023-05-20T20:17:33.664Z,50.67
2023-05-20T20:20:00.989Z,50.82
2023-05-20T20:22:27.889Z,50.96
2023-05-20T20:24:54.577Z,50.69
2023-05-20T20:27:23.574Z,51.10
2023-05-20T20:29:50.365Z,50.75
2023-05-20T20:32:17.154Z,50.83
2023-05-20T20:34:43.887Z,51.10
2023-05-20T20:37:14.542Z,51.17
2023-05-20T20:39:41.315Z,51.00
2023-05-20T20:42:08.077Z,51.19
2023-05-20T20:44:34.761Z,52.09
2023-05-20T20:47:04.106Z,51.60
2023-05-20T20:49:32.020Z,51.63
2023-05-20T20:51:59.041Z,51.74
2023-05-20T20:54:26.285Z,52.34
2023-05-20T20:56:56.425Z,52.07
2023-05-20T20:59:26.841Z,52.22
2023-05-20T21:01:54.286Z,52.27
2023-05-20T21:04:21.319Z,52.37
2023-05-20T21:06:48.100Z,52.42
2023-05-20T21:09:15.429Z,52.69
2023-05-20T21:11:42.578Z,52.62
2023-05-20T21:14:10.068Z,52.66
2023-05-20T21:16:37.115Z,52.84
2023-05-20T21:19:04.781Z,52.59
2023-05-20T21:21:31.740Z,52.69
2023-05-20T21:23:58.561Z,52.73
2023-05-20T21:26:25.687Z,52.83
2023-05-20T21:28:52.733Z,52.69
2023-05-20T21:31:19.561Z,52.51
2023-05-20T21:33:46.361Z,52.62
2023-05-20T21:36:13.124Z,52.59
2023-05-20T21:38:39.883Z,52.75
2023-05-20T21:41:07.260Z,52.87
2023-05-20T21:43:34.196Z,52.69
2023-05-20T21:46:01.024Z,52.93
2023-05-20T21:48:27.836Z,52.91
2023-05-20T21:50:54.505Z,53.21
2023-05-20T21:53:21.253Z,53.05
2023-05-20T21:55:48.107Z,53.27
2023-05-20T21:58:14.820Z,53.10
2023-05-20T22:00:41.672Z,53.17
2023-05-20T22:03:08.510Z,53.10
2023-05-20T22:05:35.456Z,53.17
2023-05-20T22:08:02.865Z,53.52
2023-05-20T22:10:29.583Z,53.56
2023-05-20T22:12:58.094Z,54.22
2023-05-20T22:15:24.887Z,53.98
2023-05-20T22:17:51.696Z,53.97
2023-05-20T22:20:18.463Z,53.86
2023-05-20T22:22:45.186Z,54.26
2023-05-20T22:25:12.564Z,53.92
2023-05-20T22:27:42.920Z,53.79
2023-05-20T22:30:11.778Z,53.94
2023-05-20T22:32:39.071Z,53.79
2023-05-20T22:35:06.585Z,54.01
2023-05-20T22:37:33.513Z,54.24
2023-05-20T22:40:00.560Z,54.44
2023-05-20T22:42:27.285Z,54.74
2023-05-20T22:44:54.014Z,54.83
2023-05-20T22:47:21.159Z,55.16
2023-05-20T22:49:47.864Z,55.23
2023-05-20T22:52:14.605Z,55.66
2023-05-20T22:54:41.313Z,55.87
2023-05-20T22:57:08.309Z,55.63
2023-05-20T22:59:36.526Z,55.79
2023-05-20T23:02:04.390Z,55.81
2023-05-20T23:04:31.193Z,55.85
2023-05-20T23:06:59.425Z,56.04
2023-05-20T23:09:26.544Z,56.32
2023-05-20T23:11:53.232Z,56.14
2023-05-20T23:14:20.045Z,56.50
2023-05-20T23:16:47.084Z,56.91
2023-05-20T23:19:14.271Z,56.98
2023-05-20T23:21:41.050Z,57.22
2023-05-20T23:24:07.831Z,57.18
2023-05-20T23:26:34.642Z,57.37
2023-05-20T23:29:01.569Z,57.55
2023-05-20T23:31:29.897Z,57.25
2023-05-20T23:33:59.684Z,57.60
2023-05-20T23:36:28.924Z,57.50
2023-05-20T23:38:56.537Z,57.50
2023-05-20T23:41:24.385Z,57.57
2023-05-20T23:43:51.316Z,57.47
2023-05-20T23:46:19.157Z,57.60
2023-05-20T23:48:48.298Z,57.75
2023-05-20T23:51:16.237Z,57.79
2023-05-20T23:53:44.030Z,57.82
2023-05-20T23:56:11.315Z,57.76
2023-05-20T23:58:38.175Z,58.02
